createdAt,value
2022-09-22T00:00:55.885Z,13.50
2022-09-22T00:03:22.611Z,11.68
2022-09-22T00:05:49.074Z,13.57
2022-09-22T00:08:15.548Z,11.50
2022-09-22T00:10:41.959Z,10.57
2022-09-22T00:13:08.372Z,9.18
2022-09-22T00:15:34.816Z,10.02
2022-09-22T00:18:01.291Z,10.98
2022-09-22T00:20:27.696Z,9.32
2022-09-22T00:22:54.074Z,9.38
2022-09-22T00:25:20.491Z,13.25
2022-09-22T00:27:46.887Z,10.63
2022-09-22T00:30:14.746Z,10.57
2022-09-22T00:32:41.162Z,9.70
2022-09-22T00:35:08.154Z,12.57
2022-09-22T00:37:34.520Z,12.85
2022-09-22T00:40:01.178Z,12.32
2022-09-22T00:42:27.678Z,12.13
2022-09-22T00:44:54.067Z,12.80
2022-09-22T00:47:36.313Z,11.10
2022-09-22T00:50:18.924Z,11.18
2022-09-22T00:53:03.634Z,11.13
2022-09-22T00:55:33.973Z,11.93
2022-09-22T00:58:01.451Z,16.08
2022-09-22T01:00:28.094Z,14.35
2022-09-22T01:02:58.376Z,12.80
2022-09-22T01:05:26.433Z,10.70
2022-09-22T01:07:54.359Z,9.95
2022-09-22T01:10:21.042Z,11.35
2022-09-22T01:13:10.007Z,13.13
2022-09-22T01:15:55.012Z,10.88
2022-09-22T01:18:35.865Z,11.10
2022-09-22T01:21:39.903Z,11.57
2022-09-22T01:24:27.965Z,11.57
2022-09-22T01:27:42.095Z,10.60
2022-09-22T01:30:21.045Z,10.88
2022-09-22T01:32:56.330Z,11.05
2022-09-22T01:35:32.739Z,14.07
2022-09-22T01:38:09.878Z,9.80
2022-09-22T01:40:42.803Z,11.35
2022-09-22T01:43:36.030Z,13.30
2022-09-22T01:46:07.085Z,10.80
2022-09-22T01:48:33.966Z,11.45
2022-09-22T01:51:08.980Z,9.98
2022-09-22T01:53:39.538Z,9.43
2022-09-22T01:56:08.037Z,12.40
2022-09-22T01:58:39.402Z,12.82
2022-09-22T02:01:13.786Z,18.90
2022-09-22T02:03:45.333Z,24.73
2022-09-22T02:06:24.618Z,26.92
2022-09-22T02:08:56.635Z,27.80
2022-09-22T02:11:23.693Z,27.13
2022-09-22T02:13:50.324Z,27.20
2022-09-22T02:16:19.747Z,31.48
2022-09-22T02:19:12.565Z,30.13
2022-09-22T02:21:40.889Z,26.75
2022-09-22T02:24:07.968Z,27.67
2022-09-22T02:26:35.493Z,30.48
2022-09-22T02:29:08.836Z,34.22
2022-09-22T02:31:37.180Z,38.17
2022-09-22T02:34:06.469Z,35.88
2022-09-22T02:36:51.486Z,44.15
2022-09-22T02:39:35.618Z,43.10
2022-09-22T02:42:07.983Z,43.08
2022-09-22T02:44:45.972Z,38.90
2022-09-22T02:47:34.347Z,29.02
2022-09-22T02:50:03.545Z,23.08
2022-09-22T02:52:29.985Z,21.38
2022-09-22T02:54:56.447Z,20.50
2022-09-22T02:57:22.848Z,20.48
2022-09-22T02:59:49.239Z,18.38
2022-09-22T03:02:15.633Z,19.00
2022-09-22T03:04:42.151Z,17.75
2022-09-22T03:07:08.562Z,20.90
2022-09-22T03:09:35.237Z,17.80
2022-09-22T03:12:01.852Z,19.10
2022-09-22T03:14:28.310Z,20.45
2022-09-22T03:16:54.679Z,18.10
2022-09-22T03:19:21.093Z,19.80
2022-09-22T03:21:47.509Z,17.90
2022-09-22T03:24:13.889Z,18.33
2022-09-22T03:26:40.335Z,21.02
2022-09-22T03:29:06.744Z,18.65
2022-09-22T03:31:33.124Z,19.50
2022-09-22T03:33:59.626Z,24.42
2022-09-22T03:36:26.042Z,23.92
2022-09-22T03:38:52.948Z,23.13
2022-09-22T03:41:19.719Z,20.08
2022-09-22T03:43:46.129Z,25.42
2022-09-22T03:46:14.216Z,21.83
2022-09-22T03:48:44.803Z,21.38
2022-09-22T03:51:11.679Z,20.83
2022-09-22T03:53:38.107Z,21.65
2022-09-22T03:56:13.688Z,19.10
2022-09-22T03:58:40.939Z,18.42
2022-09-22T04:01:08.862Z,17.15
2022-09-22T04:03:35.579Z,14.57
2022-09-22T04:06:02.612Z,15.27
2022-09-22T04:08:29.743Z,13.88
2022-09-22T04:10:57.712Z,14.13
2022-09-22T04:13:24.163Z,14.35
2022-09-22T04:15:50.539Z,14.50
2022-09-22T04:18:17.024Z,12.02
2022-09-22T04:20:44.234Z,12.73
2022-09-22T04:23:15.395Z,13.55
2022-09-22T04:25:41.891Z,11.43
2022-09-22T04:28:08.519Z,12.68
2022-09-22T04:30:35.222Z,17.00
2022-09-22T04:33:01.932Z,14.73
2022-09-22T04:35:28.920Z,15.88
2022-09-22T04:37:56.209Z,15.13
2022-09-22T04:40:23.432Z,17.63
2022-09-22T04:42:50.171Z,14.95
2022-09-22T04:45:16.927Z,13.35
2022-09-22T04:47:50.925Z,14.05
2022-09-22T04:50:18.514Z,14.73
2022-09-22T04:52:46.204Z,16.42
2022-09-22T04:55:13.162Z,15.30
2022-09-22T04:57:39.732Z,13.90
2022-09-22T05:00:07.144Z,22.58
2022-09-22T05:02:35.036Z,15.40
2022-09-22T05:05:02.574Z,14.20
2022-09-22T05:07:29.006Z,16.27
2022-09-22T05:09:55.387Z,13.07
2022-09-22T05:12:21.813Z,12.73
2022-09-22T05:14:48.635Z,14.65
2022-09-22T05:17:15.079Z,14.45
2022-09-22T05:19:41.466Z,13.43
2022-09-22T05:22:07.833Z,13.20
2022-09-22T05:24:34.294Z,16.08
2022-09-22T05:27:00.693Z,15.55
2022-09-22T05:29:28.106Z,12.07
2022-09-22T05:31:54.960Z,16.42
2022-09-22T05:34:21.522Z,13.95
2022-09-22T05:36:47.933Z,15.43
2022-09-22T05:39:14.317Z,15.35
2022-09-22T05:41:40.723Z,14.85
2022-09-22T05:44:07.105Z,14.32
2022-09-22T05:46:33.565Z,13.23
2022-09-22T05:49:00.021Z,14.25
2022-09-22T05:51:26.390Z,12.07
2022-09-22T05:53:53.069Z,22.60
2022-09-22T05:56:19.468Z,22.20
2022-09-22T05:58:47.247Z,16.63
2022-09-22T06:01:13.784Z,17.67
2022-09-22T06:03:40.656Z,15.13
2022-09-22T06:06:07.145Z,16.65
2022-09-22T06:08:33.630Z,12.90
2022-09-22T06:11:00.044Z,13.77
2022-09-22T06:13:26.435Z,12.10
2022-09-22T06:15:52.849Z,13.32
2022-09-22T06:18:24.690Z,12.02
2022-09-22T06:20:51.700Z,15.02
2022-09-22T06:23:18.115Z,11.93
2022-09-22T06:25:44.489Z,15.18
2022-09-22T06:28:14.468Z,14.70
2022-09-22T06:30:41.179Z,14.23
2022-09-22T06:33:08.978Z,12.13
2022-09-22T06:35:37.669Z,13.45
2022-09-22T06:38:07.777Z,13.13
2022-09-22T06:40:37.549Z,15.98
2022-09-22T06:43:10.506Z,13.73
2022-09-22T06:45:37.060Z,14.57
2022-09-22T06:48:09.501Z,14.32
2022-09-22T06:50:36.995Z,13.85
2022-09-22T06:53:07.072Z,15.32
2022-09-22T06:55:34.162Z,12.35
2022-09-22T06:58:01.322Z,18.13
2022-09-22T07:00:31.273Z,14.32
2022-09-22T07:03:11.597Z,17.23
2022-09-22T07:05:38.070Z,14.77
2022-09-22T07:08:05.227Z,14.80
2022-09-22T07:10:37.751Z,16.80
2022-09-22T07:15:33.288Z,14.93
2022-09-22T07:17:59.691Z,16.40
2022-09-22T07:20:26.075Z,18.13
2022-09-22T07:23:00.114Z,14.63
2022-09-22T07:25:33.599Z,12.55
2022-09-22T07:28:04.976Z,14.48
2022-09-22T07:30:31.789Z,12.65
2022-09-22T07:32:58.277Z,10.65
2022-09-22T07:35:24.720Z,10.63
2022-09-22T07:37:57.051Z,11.20
2022-09-22T07:40:23.602Z,11.40
2022-09-22T07:42:50.251Z,10.98
2022-09-22T07:45:16.749Z,13.48
2022-09-22T07:48:02.849Z,10.65
2022-09-22T07:50:29.998Z,12.75
2022-09-22T07:52:56.643Z,10.23
2022-09-22T07:55:25.061Z,11.48
2022-09-22T07:57:55.051Z,13.20
2022-09-22T08:00:22.919Z,12.10
2022-09-22T08:02:57.668Z,12.75
2022-09-22T08:05:25.709Z,12.30
2022-09-22T08:07:52.149Z,9.85
2022-09-22T08:10:19.516Z,10.68
2022-09-22T08:12:46.120Z,13.10
2022-09-22T08:15:12.763Z,9.43
2022-09-22T08:17:40.150Z,13.77
2022-09-22T08:20:07.957Z,13.88
2022-09-22T08:22:34.411Z,10.25
2022-09-22T08:25:00.824Z,11.38
2022-09-22T08:27:27.255Z,12.15
2022-09-22T08:29:53.636Z,12.40
2022-09-22T08:32:20.101Z,10.73
2022-09-22T08:34:46.496Z,14.77
2022-09-22T08:37:13.928Z,11.27
2022-09-22T08:39:40.298Z,14.25
2022-09-22T08:42:09.188Z,14.52
2022-09-22T08:44:52.126Z,13.07
2022-09-22T08:47:41.406Z,12.10
2022-09-22T08:50:55.743Z,9.90
2022-09-22T08:53:23.302Z,10.05
2022-09-22T08:55:57.532Z,7.65
2022-09-22T08:58:30.120Z,10.95
2022-09-22T09:03:41.408Z,12.63
2022-09-22T09:06:26.869Z,12.27
2022-09-22T09:09:05.301Z,9.77
2022-09-22T09:11:40.834Z,10.70
2022-09-22T09:14:17.254Z,11.02
2022-09-22T09:16:57.026Z,14.55
2022-09-22T09:19:29.457Z,9.73
2022-09-22T09:22:01.104Z,12.35
2022-09-22T09:27:36.952Z,9.80
2022-09-22T09:30:22.780Z,8.63
2022-09-22T09:32:51.513Z,8.88
2022-09-22T09:35:24.729Z,9.43
2022-09-22T09:37:51.736Z,8.10
2022-09-22T09:40:19.844Z,4.95
2022-09-22T09:42:49.382Z,8.05
2022-09-22T09:45:17.245Z,9.27
2022-09-22T09:48:09.587Z,8.98
2022-09-22T09:50:36.193Z,7.00
2022-09-22T09:53:02.603Z,7.53
2022-09-22T09:55:29.384Z,6.10
2022-09-22T09:58:02.856Z,5.28
2022-09-22T10:00:32.403Z,3.05
2022-09-22T10:03:22.997Z,4.10
2022-09-22T10:06:07.146Z,5.93
2022-09-22T10:08:43.334Z,2.42
2022-09-22T10:11:11.638Z,1.88
2022-09-22T10:13:39.215Z,2.10
2022-09-22T10:16:23.185Z,1.70
2022-09-22T10:19:21.806Z,3.75
2022-09-22T10:21:48.942Z,2.63
2022-09-22T10:24:31.561Z,5.50
2022-09-22T10:27:00.409Z,2.53
2022-09-22T10:29:30.086Z,2.22
2022-09-22T10:32:02.730Z,2.78
2022-09-22T10:34:40.274Z,2.42
2022-09-22T10:37:10.580Z,1.55
2022-09-22T10:39:50.541Z,2.45
2022-09-22T10:42:45.363Z,2.00
2022-09-22T10:45:13.749Z,2.80
2022-09-22T10:47:43.119Z,3.50
2022-09-22T10:50:16.469Z,3.50
2022-09-22T10:53:15.151Z,1.88
2022-09-22T10:55:53.601Z,3.03
2022-09-22T10:58:27.454Z,1.85
2022-09-22T11:01:03.301Z,1.65
2022-09-22T11:03:53.880Z,3.05
2022-09-22T11:06:46.039Z,1.65
2022-09-22T11:09:37.190Z,2.05
2022-09-22T11:12:19.208Z,1.58
2022-09-22T11:15:19.114Z,1.77
2022-09-22T11:17:58.538Z,1.45
2022-09-22T11:20:38.050Z,3.58
2022-09-22T11:23:35.388Z,1.30
2022-09-22T11:26:20.021Z,2.72
2022-09-22T11:29:20.390Z,4.32
2022-09-22T11:32:06.383Z,2.25
2022-09-22T11:35:03.395Z,1.85
2022-09-22T11:37:50.344Z,3.33
2022-09-22T11:40:41.446Z,1.60
2022-09-22T11:43:22.722Z,1.98
2022-09-22T11:45:59.521Z,1.95
2022-09-22T11:49:03.788Z,1.05
2022-09-22T11:51:58.128Z,2.47
2022-09-22T11:54:45.941Z,3.42
2022-09-22T11:57:15.888Z,2.05
2022-09-22T12:00:00.019Z,0.95
2022-09-22T12:02:35.450Z,1.95
2022-09-22T12:05:04.912Z,3.30
2022-09-22T12:07:37.563Z,3.65
2022-09-22T12:10:07.076Z,2.97
2022-09-22T12:12:33.948Z,7.78
2022-09-22T12:15:35.493Z,2.15
2022-09-22T12:18:23.883Z,1.75
2022-09-22T12:21:01.052Z,5.60
2022-09-22T12:23:34.140Z,5.13
2022-09-22T12:26:04.490Z,2.53
2022-09-22T12:28:32.048Z,2.28
2022-09-22T12:31:18.815Z,4.95
2022-09-22T12:33:47.330Z,3.85
2022-09-22T12:36:14.585Z,1.80
2022-09-22T12:38:41.391Z,6.43
2022-09-22T12:41:08.093Z,3.42
2022-09-22T12:43:35.324Z,2.65
2022-09-22T12:46:05.762Z,3.10
2022-09-22T12:48:35.227Z,1.40
2022-09-22T12:51:15.620Z,2.50
2022-09-22T12:53:43.833Z,2.88
2022-09-22T12:56:46.566Z,2.50
2022-09-22T12:59:37.666Z,3.22
2022-09-22T13:02:16.242Z,3.22
2022-09-22T13:04:58.062Z,1.65
2022-09-22T13:07:41.478Z,1.70
2022-09-22T13:10:23.283Z,3.95
2022-09-22T13:13:09.163Z,4.93
2022-09-22T13:15:49.165Z,2.25
2022-09-22T13:18:40.843Z,1.95
2022-09-22T13:21:13.206Z,3.40
2022-09-22T13:26:23.767Z,5.28
2022-09-22T13:29:03.120Z,3.50
2022-09-22T13:31:36.881Z,1.35
2022-09-22T13:34:26.439Z,1.58
2022-09-22T13:37:10.780Z,1.77
2022-09-22T13:39:47.579Z,2.88
2022-09-22T13:42:19.247Z,2.63
2022-09-22T13:44:56.751Z,2.83
2022-09-22T13:47:25.018Z,4.53
2022-09-22T13:49:55.112Z,3.28
2022-09-22T13:52:24.864Z,2.60
2022-09-22T13:54:57.146Z,7.93
2022-09-22T13:57:35.128Z,9.30
2022-09-22T14:00:01.814Z,6.57
2022-09-22T14:02:31.750Z,2.42
2022-09-22T14:05:07.916Z,1.40
2022-09-22T14:07:49.486Z,1.80
2022-09-22T14:10:25.429Z,2.30
2022-09-22T14:12:51.910Z,0.93
2022-09-22T14:15:36.834Z,2.60
2022-09-22T14:18:25.987Z,7.03
2022-09-22T14:20:54.948Z,1.00
2022-09-22T14:23:29.621Z,3.28
2022-09-22T14:25:57.797Z,2.35
2022-09-22T14:28:27.503Z,3.78
2022-09-22T14:30:53.897Z,1.70
2022-09-22T14:33:31.060Z,2.03
2022-09-22T14:36:03.137Z,2.10
2022-09-22T14:38:30.351Z,3.13
2022-09-22T14:41:02.776Z,2.05
2022-09-22T14:46:22.889Z,1.88
2022-09-22T14:48:49.477Z,2.70
2022-09-22T14:51:20.301Z,2.65
2022-09-22T14:53:49.416Z,3.58
2022-09-22T14:56:27.701Z,2.88
2022-09-22T14:59:00.456Z,2.95
2022-09-22T15:01:48.250Z,3.60
2022-09-22T15:04:24.021Z,1.38
2022-09-22T15:06:52.157Z,2.95
2022-09-22T15:09:27.144Z,2.63
2022-09-22T15:12:00.292Z,2.78
2022-09-22T15:14:33.911Z,3.25
2022-09-22T15:17:23.313Z,4.93
2022-09-22T15:19:58.418Z,4.85
2022-09-22T15:22:27.047Z,2.40
2022-09-22T15:24:53.611Z,1.48
2022-09-22T15:27:19.995Z,2.90
2022-09-22T15:29:46.618Z,3.63
2022-09-22T15:32:13.022Z,3.42
2022-09-22T15:34:44.785Z,2.20
2022-09-22T15:37:15.166Z,1.90
2022-09-22T15:39:42.330Z,1.83
2022-09-22T15:42:11.079Z,1.98
2022-09-22T15:44:37.505Z,2.38
2022-09-22T15:47:04.655Z,2.50
2022-09-22T15:49:34.317Z,2.72
2022-09-22T15:52:04.740Z,2.85
2022-09-22T15:54:31.403Z,1.85
2022-09-22T15:56:59.651Z,1.95
2022-09-22T15:59:28.662Z,1.75
2022-09-22T16:01:57.096Z,2.97
2022-09-22T16:04:23.823Z,2.03
2022-09-22T16:06:54.297Z,4.00
2022-09-22T16:09:20.795Z,2.53
2022-09-22T16:11:48.140Z,2.85
2022-09-22T16:14:14.634Z,2.47
2022-09-22T16:16:42.883Z,2.25
2022-09-22T16:19:10.339Z,2.92
2022-09-22T16:21:38.675Z,1.88
2022-09-22T16:24:08.248Z,1.85
2022-09-22T16:26:36.851Z,2.25
2022-09-22T16:29:03.985Z,1.40
2022-09-22T16:31:30.550Z,1.23
2022-09-22T16:34:01.980Z,1.85
2022-09-22T16:36:31.065Z,1.55
2022-09-22T16:38:57.554Z,1.75
2022-09-22T16:41:26.215Z,3.03
2022-09-22T16:43:53.878Z,0.98
2022-09-22T16:46:27.903Z,2.22
2022-09-22T16:48:54.651Z,3.03
2022-09-22T16:51:21.384Z,4.22
2022-09-22T16:53:52.709Z,3.17
2022-09-22T16:56:24.385Z,1.10
2022-09-22T16:58:51.140Z,2.70
2022-09-22T17:01:20.110Z,2.72
2022-09-22T17:03:48.026Z,1.73
2022-09-22T17:06:15.858Z,1.88
2022-09-22T17:08:43.785Z,3.05
2022-09-22T17:11:14.115Z,1.63
2022-09-22T17:13:43.267Z,1.30
2022-09-22T17:16:24.495Z,1.00
2022-09-22T17:18:55.139Z,2.00
2022-09-22T17:21:21.920Z,3.30
2022-09-22T17:23:53.972Z,2.47
2022-09-22T17:26:21.062Z,3.28
2022-09-22T17:28:50.093Z,3.38
2022-09-22T17:31:16.553Z,3.90
2022-09-22T17:33:51.982Z,3.35
2022-09-22T17:36:21.076Z,4.35
2022-09-22T17:38:50.261Z,3.70
2022-09-22T17:41:24.330Z,3.25
2022-09-22T17:43:58.748Z,4.80
2022-09-22T17:46:26.304Z,3.05
2022-09-22T17:49:11.526Z,4.18
2022-09-22T17:52:04.644Z,4.40
2022-09-22T17:54:50.917Z,2.42
2022-09-22T17:57:19.779Z,2.30
2022-09-22T17:59:47.251Z,2.75
2022-09-22T18:02:15.337Z,3.58
2022-09-22T18:04:45.269Z,4.30
2022-09-22T18:07:17.853Z,3.78
2022-09-22T18:12:21.337Z,3.75
2022-09-22T18:14:49.927Z,4.20
2022-09-22T18:17:18.486Z,2.15
2022-09-22T18:19:44.920Z,4.50
2022-09-22T18:22:17.089Z,3.60
2022-09-22T18:24:44.105Z,3.03
2022-09-22T18:27:13.107Z,5.38
2022-09-22T18:29:39.620Z,3.72
2022-09-22T18:32:06.151Z,3.95
2022-09-22T18:34:32.615Z,4.53
2022-09-22T18:37:00.829Z,2.67
2022-09-22T18:39:28.366Z,3.72
2022-09-22T18:41:55.308Z,5.45
2022-09-22T18:44:22.368Z,3.50
2022-09-22T18:46:48.949Z,4.28
2022-09-22T18:49:16.549Z,5.22
2022-09-22T18:51:49.051Z,6.55
2022-09-22T18:56:44.785Z,5.55
2022-09-22T18:59:13.227Z,7.93
2022-09-22T19:01:39.686Z,5.50
2022-09-22T19:04:08.423Z,6.00
2022-09-22T19:06:53.401Z,5.22
2022-09-22T19:09:21.014Z,4.40
2022-09-22T19:11:50.394Z,2.65
2022-09-22T19:14:17.704Z,5.25
2022-09-22T19:16:48.564Z,3.50
2022-09-22T19:19:16.049Z,2.60
2022-09-22T19:21:42.771Z,5.43
2022-09-22T19:24:09.606Z,2.13
2022-09-22T19:26:42.162Z,4.65
2022-09-22T19:29:09.378Z,3.00
2022-09-22T19:31:36.893Z,3.40
2022-09-22T19:34:05.344Z,3.65
2022-09-22T19:36:32.318Z,1.83
2022-09-22T19:38:58.836Z,2.58
2022-09-22T19:41:26.700Z,3.55
2022-09-22T19:43:54.289Z,3.20
2022-09-22T19:46:20.847Z,3.08
2022-09-22T19:48:48.398Z,4.47
2022-09-22T19:51:15.071Z,3.63
2022-09-22T19:53:42.069Z,2.17
2022-09-22T19:56:09.112Z,2.45
2022-09-22T19:58:35.568Z,2.95
2022-09-22T20:01:02.029Z,3.08
2022-09-22T20:03:28.455Z,4.40
2022-09-22T20:05:54.927Z,2.83
2022-09-22T20:08:22.594Z,3.30
2022-09-22T20:11:16.367Z,4.32
2022-09-22T20:14:01.074Z,2.67
2022-09-22T20:16:28.116Z,2.95
2022-09-22T20:18:54.985Z,2.65
2022-09-22T20:21:21.598Z,2.92
2022-09-22T20:23:48.085Z,3.83
2022-09-22T20:26:14.469Z,4.22
2022-09-22T20:28:41.457Z,4.15
2022-09-22T20:31:11.761Z,3.70
2022-09-22T20:33:38.904Z,2.95
2022-09-22T20:36:06.002Z,2.10
2022-09-22T20:38:33.731Z,2.00
2022-09-22T20:41:00.930Z,2.35
2022-09-22T20:43:28.749Z,3.10
2022-09-22T20:46:04.108Z,1.85
2022-09-22T20:48:30.519Z,3.10
2022-09-22T20:50:58.054Z,1.83
2022-09-22T20:53:24.855Z,2.88
2022-09-22T20:56:01.781Z,3.10
2022-09-22T20:58:30.068Z,3.00
2022-09-22T21:00:56.515Z,4.00
2022-09-22T21:03:22.892Z,3.47
2022-09-22T21:05:49.286Z,2.90
2022-09-22T21:08:34.553Z,2.53
2022-09-22T21:11:01.149Z,5.85
2022-09-22T21:13:27.648Z,3.33
2022-09-22T21:16:02.489Z,4.72
2022-09-22T21:18:31.164Z,3.22
2022-09-22T21:20:59.689Z,2.30
2022-09-22T21:23:26.088Z,2.22
2022-09-22T21:26:00.417Z,2.42
2022-09-22T21:28:27.629Z,2.97
2022-09-22T21:30:58.205Z,3.58
2022-09-22T21:33:25.818Z,3.80
2022-09-22T21:36:15.431Z,4.03
2022-09-22T21:38:42.907Z,2.28
2022-09-22T21:41:13.396Z,3.22
2022-09-22T21:43:40.363Z,3.13
2022-09-22T21:46:09.143Z,2.25
2022-09-22T21:48:39.523Z,3.17
2022-09-22T21:51:08.353Z,3.17
2022-09-22T21:53:35.914Z,2.80
2022-09-22T21:56:03.812Z,3.00
2022-09-22T21:58:32.773Z,4.35
2022-09-22T22:01:01.018Z,3.28
2022-09-22T22:03:30.419Z,3.08
2022-09-22T22:06:01.771Z,2.72
2022-09-22T22:08:28.628Z,3.63
2022-09-22T22:11:04.522Z,5.05
2022-09-22T22:13:32.732Z,2.42
2022-09-22T22:16:00.011Z,3.65
2022-09-22T22:18:27.603Z,4.72
2022-09-22T22:20:58.889Z,7.25
2022-09-22T22:23:28.766Z,3.13
2022-09-22T22:25:57.769Z,2.25
2022-09-22T22:28:24.281Z,3.97
2022-09-22T22:30:50.766Z,3.47
2022-09-22T22:33:17.231Z,2.33
2022-09-22T22:35:50.946Z,3.42
2022-09-22T22:38:17.718Z,2.25
2022-09-22T22:40:46.493Z,3.58
2022-09-22T22:43:14.257Z,2.47
2022-09-22T22:45:47.800Z,2.95
2022-09-22T22:48:15.410Z,4.53
2022-09-22T22:50:42.765Z,2.28
2022-09-22T22:53:10.830Z,3.22
2022-09-22T22:55:38.012Z,2.70
2022-09-22T22:58:05.507Z,2.38
2022-09-22T23:00:35.297Z,2.63
2022-09-22T23:03:01.658Z,4.40
2022-09-22T23:05:28.169Z,1.77
2022-09-22T23:07:54.645Z,2.95
2022-09-22T23:10:21.638Z,1.95
2022-09-22T23:12:48.554Z,4.43
2022-09-22T23:15:15.025Z,3.97
2022-09-22T23:17:41.407Z,3.35
2022-09-22T23:20:08.131Z,4.40
2022-09-22T23:22:35.352Z,4.93
2022-09-22T23:25:01.772Z,3.55
2022-09-22T23:27:28.414Z,4.50
2022-09-22T23:29:56.787Z,3.40
2022-09-22T23:32:24.363Z,1.90
2022-09-22T23:34:50.725Z,4.05
2022-09-22T23:37:17.486Z,3.05
2022-09-22T23:39:43.856Z,3.58
2022-09-22T23:42:10.367Z,5.65
2022-09-22T23:44:36.754Z,3.17
2022-09-22T23:47:03.460Z,4.53
2022-09-22T23:49:29.867Z,4.38
2022-09-22T23:51:56.259Z,2.90
2022-09-22T23:54:22.669Z,2.88
2022-09-22T23:56:49.107Z,2.30
2022-09-22T23:59:15.495Z,2.25
